sensor_id;sensor_type;location;lat;lon;timestamp;P1;durP1;ratioP1;P2;durP2;ratioP2
22318;SDS011;11327;52.334;9.506;2023-02-15T00:02:14;19.98;;;13.98;;
22318;SDS011;11327;52.334;9.506;2023-02-15T00:05:35;22.50;;;14.28;;
22318;SDS011;11327;52.334;9.506;2023-02-15T00:08:56;22.27;;;13.88;;
22318;SDS011;11327;52.334;9.506;2023-02-15T00:12:17;22.87;;;14.95;;
22318;SDS011;11327;52.334;9.506;2023-02-15T00:15:38;21.12;;;13.70;;
22318;SDS011;11327;52.334;9.506;2023-02-15T00:18:58;20.60;;;12.98;;
22318;SDS011;11327;52.334;9.506;2023-02-15T00:22:21;21.10;;;13.60;;
22318;SDS011;11327;52.334;9.506;2023-02-15T00:25:42;20.52;;;13.28;;
22318;SDS011;11327;52.334;9.506;2023-02-15T00:29:04;19.40;;;13.10;;
22318;SDS011;11327;52.334;9.506;2023-02-15T00:32:24;18.07;;;12.65;;
22318;SDS011;11327;52.334;9.506;2023-02-15T00:35:45;19.02;;;12.55;;
22318;SDS011;11327;52.334;9.506;2023-02-15T00:39:07;19.15;;;12.15;;
22318;SDS011;11327;52.334;9.506;2023-02-15T00:42:28;18.52;;;12.03;;
22318;SDS011;11327;52.334;9.506;2023-02-15T00:45:49;20.55;;;12.28;;
22318;SDS011;11327;52.334;9.506;2023-02-15T00:49:09;19.32;;;12.68;;
22318;SDS011;11327;52.334;9.506;2023-02-15T00:52:31;20.30;;;13.10;;
22318;SDS011;11327;52.334;9.506;2023-02-15T00:55:51;18.80;;;12.58;;
22318;SDS011;11327;52.334;9.506;2023-02-15T00:59:13;21.65;;;13.72;;
22318;SDS011;11327;52.334;9.506;2023-02-15T01:02:33;18.85;;;12.40;;
22318;SDS011;11327;52.334;9.506;2023-02-15T01:05:54;19.73;;;13.13;;
22318;SDS011;11327;52.334;9.506;2023-02-15T01:09:15;19.85;;;13.35;;
22318;SDS011;11327;52.334;9.506;2023-02-15T01:12:35;19.87;;;13.58;;
22318;SDS011;11327;52.334;9.506;2023-02-15T01:15:56;18.35;;;12.28;;
22318;SDS011;11327;52.334;9.506;2023-02-15T01:19:17;20.25;;;12.80;;
22318;SDS011;11327;52.334;9.506;2023-02-15T01:22:37;19.12;;;12.78;;
22318;SDS011;11327;52.334;9.506;2023-02-15T01:26:01;16.50;;;11.45;;
22318;SDS011;11327;52.334;9.506;2023-02-15T01:29:24;17.35;;;11.80;;
22318;SDS011;11327;52.334;9.506;2023-02-15T01:32:44;18.05;;;11.45;;
22318;SDS011;11327;52.334;9.506;2023-02-15T01:36:05;17.35;;;11.75;;
22318;SDS011;11327;52.334;9.506;2023-02-15T01:39:26;17.98;;;11.83;;
22318;SDS011;11327;52.334;9.506;2023-02-15T01:42:50;17.67;;;12.03;;
22318;SDS011;11327;52.334;9.506;2023-02-15T01:46:14;19.75;;;12.88;;
22318;SDS011;11327;52.334;9.506;2023-02-15T01:49:38;17.48;;;12.20;;
22318;SDS011;11327;52.334;9.506;2023-02-15T01:53:09;18.50;;;12.50;;
22318;SDS011;11327;52.334;9.506;2023-02-15T01:56:32;18.35;;;12.03;;
22318;SDS011;11327;52.334;9.506;2023-02-15T01:59:56;18.15;;;12.40;;
22318;SDS011;11327;52.334;9.506;2023-02-15T02:03:20;17.70;;;11.93;;
22318;SDS011;11327;52.334;9.506;2023-02-15T02:06:44;17.23;;;11.90;;
22318;SDS011;11327;52.334;9.506;2023-02-15T02:10:08;19.27;;;11.75;;
22318;SDS011;11327;52.334;9.506;2023-02-15T02:13:31;17.50;;;11.90;;
22318;SDS011;11327;52.334;9.506;2023-02-15T02:34:46;15.20;;;10.53;;
22318;SDS011;11327;52.334;9.506;2023-02-15T02:45:05;15.63;;;11.03;;
22318;SDS011;11327;52.334;9.506;2023-02-15T02:48:29;16.55;;;11.70;;
22318;SDS011;11327;52.334;9.506;2023-02-15T02:51:59;17.90;;;12.13;;
22318;SDS011;11327;52.334;9.506;2023-02-15T02:55:23;18.52;;;12.58;;
22318;SDS011;11327;52.334;9.506;2023-02-15T02:58:54;19.05;;;12.37;;
22318;SDS011;11327;52.334;9.506;2023-02-15T03:02:24;17.82;;;11.40;;
22318;SDS011;11327;52.334;9.506;2023-02-15T03:05:47;16.30;;;11.33;;
22318;SDS011;11327;52.334;9.506;2023-02-15T03:09:11;17.85;;;11.38;;
22318;SDS011;11327;52.334;9.506;2023-02-15T03:12:35;18.20;;;11.97;;
22318;SDS011;11327;52.334;9.506;2023-02-15T03:15:58;18.15;;;11.97;;
22318;SDS011;11327;52.334;9.506;2023-02-15T03:19:40;19.25;;;11.85;;
22318;SDS011;11327;52.334;9.506;2023-02-15T03:23:03;17.30;;;11.45;;
22318;SDS011;11327;52.334;9.506;2023-02-15T03:26:26;18.15;;;11.88;;
22318;SDS011;11327;52.334;9.506;2023-02-15T03:29:51;17.52;;;11.05;;
22318;SDS011;11327;52.334;9.506;2023-02-15T03:33:14;16.73;;;11.48;;
22318;SDS011;11327;52.334;9.506;2023-02-15T03:40:19;17.85;;;11.90;;
22318;SDS011;11327;52.334;9.506;2023-02-15T03:44:11;19.35;;;12.20;;
22318;SDS011;11327;52.334;9.506;2023-02-15T03:47:36;17.67;;;11.80;;
22318;SDS011;11327;52.334;9.506;2023-02-15T03:51:01;17.52;;;11.63;;
22318;SDS011;11327;52.334;9.506;2023-02-15T03:54:43;16.70;;;11.40;;
22318;SDS011;11327;52.334;9.506;2023-02-15T03:58:07;16.32;;;11.18;;
22318;SDS011;11327;52.334;9.506;2023-02-15T04:01:54;17.50;;;11.43;;
22318;SDS011;11327;52.334;9.506;2023-02-15T04:05:17;15.20;;;10.38;;
22318;SDS011;11327;52.334;9.506;2023-02-15T04:08:38;13.78;;;10.35;;
22318;SDS011;11327;52.334;9.506;2023-02-15T04:12:17;14.00;;;10.05;;
22318;SDS011;11327;52.334;9.506;2023-02-15T04:15:37;15.95;;;10.88;;
22318;SDS011;11327;52.334;9.506;2023-02-15T04:19:17;15.65;;;10.78;;
22318;SDS011;11327;52.334;9.506;2023-02-15T04:22:56;18.05;;;11.28;;
22318;SDS011;11327;52.334;9.506;2023-02-15T04:26:35;15.63;;;10.90;;
22318;SDS011;11327;52.334;9.506;2023-02-15T04:29:56;16.32;;;10.93;;
22318;SDS011;11327;52.334;9.506;2023-02-15T04:33:17;16.62;;;11.12;;
22318;SDS011;11327;52.334;9.506;2023-02-15T04:36:38;16.10;;;10.68;;
22318;SDS011;11327;52.334;9.506;2023-02-15T04:39:59;17.35;;;10.75;;
22318;SDS011;11327;52.334;9.506;2023-02-15T04:43:20;17.92;;;11.10;;
22318;SDS011;11327;52.334;9.506;2023-02-15T04:46:40;18.37;;;10.80;;
22318;SDS011;11327;52.334;9.506;2023-02-15T04:50:01;17.45;;;11.08;;
22318;SDS011;11327;52.334;9.506;2023-02-15T04:53:23;18.27;;;11.33;;
22318;SDS011;11327;52.334;9.506;2023-02-15T04:56:43;17.57;;;10.85;;
22318;SDS011;11327;52.334;9.506;2023-02-15T05:00:04;17.02;;;10.85;;
22318;SDS011;11327;52.334;9.506;2023-02-15T05:03:26;18.25;;;11.83;;
22318;SDS011;11327;52.334;9.506;2023-02-15T05:06:47;35.13;;;20.92;;
22318;SDS011;11327;52.334;9.506;2023-02-15T05:10:08;42.40;;;24.98;;
22318;SDS011;11327;52.334;9.506;2023-02-15T05:13:29;33.92;;;19.32;;
22318;SDS011;11327;52.334;9.506;2023-02-15T05:16:50;25.35;;;16.02;;
22318;SDS011;11327;52.334;9.506;2023-02-15T05:20:11;24.07;;;14.28;;
22318;SDS011;11327;52.334;9.506;2023-02-15T05:23:31;22.75;;;14.23;;
22318;SDS011;11327;52.334;9.506;2023-02-15T05:26:52;23.25;;;14.63;;
22318;SDS011;11327;52.334;9.506;2023-02-15T05:30:31;23.77;;;14.30;;
22318;SDS011;11327;52.334;9.506;2023-02-15T05:33:52;22.40;;;14.15;;
22318;SDS011;11327;52.334;9.506;2023-02-15T05:37:13;23.80;;;14.40;;
22318;SDS011;11327;52.334;9.506;2023-02-15T05:40:34;20.37;;;13.38;;
22318;SDS011;11327;52.334;9.506;2023-02-15T05:43:55;19.67;;;11.70;;
22318;SDS011;11327;52.334;9.506;2023-02-15T05:47:17;18.82;;;11.97;;
22318;SDS011;11327;52.334;9.506;2023-02-15T05:50:38;19.90;;;12.95;;
22318;SDS011;11327;52.334;9.506;2023-02-15T05:53:58;20.62;;;12.13;;
22318;SDS011;11327;52.334;9.506;2023-02-15T05:57:19;18.80;;;12.23;;
22318;SDS011;11327;52.334;9.506;2023-02-15T06:00:40;18.67;;;11.35;;
22318;SDS011;11327;52.334;9.506;2023-02-15T06:04:01;17.20;;;11.33;;
22318;SDS011;11327;52.334;9.506;2023-02-15T06:07:21;17.70;;;11.18;;
22318;SDS011;11327;52.334;9.506;2023-02-15T06:10:42;19.00;;;11.45;;
22318;SDS011;11327;52.334;9.506;2023-02-15T06:14:03;19.10;;;12.58;;
22318;SDS011;11327;52.334;9.506;2023-02-15T06:17:23;18.65;;;11.90;;
22318;SDS011;11327;52.334;9.506;2023-02-15T06:20:47;38.63;;;18.35;;
22318;SDS011;11327;52.334;9.506;2023-02-15T06:24:08;30.90;;;16.65;;
22318;SDS011;11327;52.334;9.506;2023-02-15T06:27:29;25.43;;;14.20;;
22318;SDS011;11327;52.334;9.506;2023-02-15T06:30:51;25.80;;;13.62;;
22318;SDS011;11327;52.334;9.506;2023-02-15T06:34:12;24.30;;;14.15;;
22318;SDS011;11327;52.334;9.506;2023-02-15T06:37:33;23.02;;;13.13;;
22318;SDS011;11327;52.334;9.506;2023-02-15T06:40:54;24.72;;;13.98;;
22318;SDS011;11327;52.334;9.506;2023-02-15T06:44:14;22.87;;;12.85;;
22318;SDS011;11327;52.334;9.506;2023-02-15T06:47:35;21.27;;;12.73;;
22318;SDS011;11327;52.334;9.506;2023-02-15T06:50:56;17.55;;;10.90;;
22318;SDS011;11327;52.334;9.506;2023-02-15T06:54:17;20.45;;;12.10;;
22318;SDS011;11327;52.334;9.506;2023-02-15T06:57:38;18.12;;;11.43;;
22318;SDS011;11327;52.334;9.506;2023-02-15T07:00:59;17.12;;;11.12;;
22318;SDS011;11327;52.334;9.506;2023-02-15T07:04:19;19.70;;;12.20;;
22318;SDS011;11327;52.334;9.506;2023-02-15T07:07:40;18.48;;;11.63;;
22318;SDS011;11327;52.334;9.506;2023-02-15T07:11:01;17.67;;;11.10;;
22318;SDS011;11327;52.334;9.506;2023-02-15T07:14:41;18.60;;;11.20;;
22318;SDS011;11327;52.334;9.506;2023-02-15T07:18:01;17.25;;;11.40;;
22318;SDS011;11327;52.334;9.506;2023-02-15T07:21:22;20.68;;;12.37;;
22318;SDS011;11327;52.334;9.506;2023-02-15T07:24:43;20.88;;;12.68;;
22318;SDS011;11327;52.334;9.506;2023-02-15T07:28:04;23.07;;;15.03;;
22318;SDS011;11327;52.334;9.506;2023-02-15T07:31:24;21.65;;;14.18;;
22318;SDS011;11327;52.334;9.506;2023-02-15T07:34:45;26.57;;;15.08;;
22318;SDS011;11327;52.334;9.506;2023-02-15T07:38:06;23.50;;;14.13;;
22318;SDS011;11327;52.334;9.506;2023-02-15T07:41:26;24.57;;;14.65;;
22318;SDS011;11327;52.334;9.506;2023-02-15T07:44:47;23.77;;;14.47;;
22318;SDS011;11327;52.334;9.506;2023-02-15T07:48:08;24.75;;;14.43;;
22318;SDS011;11327;52.334;9.506;2023-02-15T07:51:29;23.70;;;14.73;;
22318;SDS011;11327;52.334;9.506;2023-02-15T07:54:50;22.22;;;14.23;;
22318;SDS011;11327;52.334;9.506;2023-02-15T07:58:10;23.60;;;14.10;;
22318;SDS011;11327;52.334;9.506;2023-02-15T08:01:32;23.07;;;14.25;;
22318;SDS011;11327;52.334;9.506;2023-02-15T08:04:56;22.52;;;14.03;;
22318;SDS011;11327;52.334;9.506;2023-02-15T08:08:16;22.55;;;13.30;;
22318;SDS011;11327;52.334;9.506;2023-02-15T08:11:52;23.67;;;13.68;;
22318;SDS011;11327;52.334;9.506;2023-02-15T08:15:13;22.42;;;14.03;;
22318;SDS011;11327;52.334;9.506;2023-02-15T08:18:33;23.12;;;13.43;;
22318;SDS011;11327;52.334;9.506;2023-02-15T08:21:58;24.25;;;14.43;;
22318;SDS011;11327;52.334;9.506;2023-02-15T08:25:21;23.62;;;14.93;;
22318;SDS011;11327;52.334;9.506;2023-02-15T08:28:42;24.18;;;14.70;;
22318;SDS011;11327;52.334;9.506;2023-02-15T08:32:07;24.45;;;15.10;;
22318;SDS011;11327;52.334;9.506;2023-02-15T08:35:29;26.30;;;15.53;;
22318;SDS011;11327;52.334;9.506;2023-02-15T08:38:50;24.40;;;15.68;;
22318;SDS011;11327;52.334;9.506;2023-02-15T08:42:11;23.42;;;14.78;;
22318;SDS011;11327;52.334;9.506;2023-02-15T08:45:31;28.05;;;16.20;;
22318;SDS011;11327;52.334;9.506;2023-02-15T08:48:52;25.60;;;15.53;;
22318;SDS011;11327;52.334;9.506;2023-02-15T08:52:13;25.97;;;15.32;;
22318;SDS011;11327;52.334;9.506;2023-02-15T08:55:34;24.85;;;14.45;;
22318;SDS011;11327;52.334;9.506;2023-02-15T08:58:55;27.32;;;16.15;;
22318;SDS011;11327;52.334;9.506;2023-02-15T09:02:16;26.87;;;16.17;;
22318;SDS011;11327;52.334;9.506;2023-02-15T09:05:37;27.82;;;16.97;;
22318;SDS011;11327;52.334;9.506;2023-02-15T09:08:58;27.77;;;16.55;;
22318;SDS011;11327;52.334;9.506;2023-02-15T09:12:18;26.05;;;15.78;;
22318;SDS011;11327;52.334;9.506;2023-02-15T09:15:39;26.42;;;16.87;;
22318;SDS011;11327;52.334;9.506;2023-02-15T09:19:00;29.10;;;17.02;;
22318;SDS011;11327;52.334;9.506;2023-02-15T09:22:21;29.70;;;17.60;;
22318;SDS011;11327;52.334;9.506;2023-02-15T09:25:42;29.42;;;17.50;;
22318;SDS011;11327;52.334;9.506;2023-02-15T09:29:03;28.10;;;17.27;;
22318;SDS011;11327;52.334;9.506;2023-02-15T09:32:24;32.10;;;19.55;;
22318;SDS011;11327;52.334;9.506;2023-02-15T09:35:44;31.12;;;18.65;;
22318;SDS011;11327;52.334;9.506;2023-02-15T09:42:40;30.60;;;19.20;;
22318;SDS011;11327;52.334;9.506;2023-02-15T09:46:18;28.83;;;17.48;;
22318;SDS011;11327;52.334;9.506;2023-02-15T10:09:06;30.45;;;18.95;;
22318;SDS011;11327;52.334;9.506;2023-02-15T10:12:01;32.83;;;18.92;;
22318;SDS011;11327;52.334;9.506;2023-02-15T10:26:23;31.60;;;20.00;;
22318;SDS011;11327;52.334;9.506;2023-02-15T10:29:54;29.55;;;19.30;;
22318;SDS011;11327;52.334;9.506;2023-02-15T10:36:53;27.48;;;18.07;;
22318;SDS011;11327;52.334;9.506;2023-02-15T10:40:20;26.97;;;18.10;;
22318;SDS011;11327;52.334;9.506;2023-02-15T10:51:00;25.27;;;16.48;;
22318;SDS011;11327;52.334;9.506;2023-02-15T11:02:02;24.25;;;16.17;;
22318;SDS011;11327;52.334;9.506;2023-02-15T11:09:20;23.53;;;15.90;;
22318;SDS011;11327;52.334;9.506;2023-02-15T11:12:44;22.80;;;16.07;;
22318;SDS011;11327;52.334;9.506;2023-02-15T11:16:26;23.47;;;16.05;;
22318;SDS011;11327;52.334;9.506;2023-02-15T11:19:42;25.82;;;16.73;;
22318;SDS011;11327;52.334;9.506;2023-02-15T11:23:01;23.22;;;15.75;;
22318;SDS011;11327;52.334;9.506;2023-02-15T11:26:39;23.00;;;15.95;;
22318;SDS011;11327;52.334;9.506;2023-02-15T11:30:09;23.67;;;16.30;;
22318;SDS011;11327;52.334;9.506;2023-02-15T11:33:33;22.48;;;14.98;;
22318;SDS011;11327;52.334;9.506;2023-02-15T11:36:59;22.95;;;15.85;;
22318;SDS011;11327;52.334;9.506;2023-02-15T11:40:27;21.77;;;15.32;;
22318;SDS011;11327;52.334;9.506;2023-02-15T11:43:55;23.20;;;15.15;;
22318;SDS011;11327;52.334;9.506;2023-02-15T11:47:21;19.95;;;15.00;;
22318;SDS011;11327;52.334;9.506;2023-02-15T11:50:42;20.72;;;14.98;;
22318;SDS011;11327;52.334;9.506;2023-02-15T11:54:04;20.23;;;14.73;;
22318;SDS011;11327;52.334;9.506;2023-02-15T11:57:31;19.60;;;14.43;;
22318;SDS011;11327;52.334;9.506;2023-02-15T12:04:36;20.15;;;13.83;;
22318;SDS011;11327;52.334;9.506;2023-02-15T12:08:36;18.70;;;14.47;;
22318;SDS011;11327;52.334;9.506;2023-02-15T12:11:40;19.37;;;14.87;;
22318;SDS011;11327;52.334;9.506;2023-02-15T12:15:02;18.35;;;14.18;;
22318;SDS011;11327;52.334;9.506;2023-02-15T12:21:55;20.23;;;15.18;;
22318;SDS011;11327;52.334;9.506;2023-02-15T12:25:33;20.12;;;14.53;;
22318;SDS011;11327;52.334;9.506;2023-02-15T12:29:00;18.60;;;13.95;;
22318;SDS011;11327;52.334;9.506;2023-02-15T12:35:54;20.23;;;15.00;;
22318;SDS011;11327;52.334;9.506;2023-02-15T12:42:48;18.82;;;14.33;;
22318;SDS011;11327;52.334;9.506;2023-02-15T12:46:19;20.05;;;14.83;;
22318;SDS011;11327;52.334;9.506;2023-02-15T12:53:33;18.82;;;14.73;;
22318;SDS011;11327;52.334;9.506;2023-02-15T12:56:55;19.80;;;14.03;;
22318;SDS011;11327;52.334;9.506;2023-02-15T13:07:29;20.05;;;14.63;;
22318;SDS011;11327;52.334;9.506;2023-02-15T13:10:54;20.40;;;15.35;;
22318;SDS011;11327;52.334;9.506;2023-02-15T13:17:39;19.52;;;14.05;;
22318;SDS011;11327;52.334;9.506;2023-02-15T13:24:36;20.80;;;14.98;;
22318;SDS011;11327;52.334;9.506;2023-02-15T13:28:00;22.13;;;16.00;;
22318;SDS011;11327;52.334;9.506;2023-02-15T13:31:23;20.88;;;15.35;;
22318;SDS011;11327;52.334;9.506;2023-02-15T13:34:48;19.82;;;14.73;;
22318;SDS011;11327;52.334;9.506;2023-02-15T13:38:33;19.60;;;13.80;;
22318;SDS011;11327;52.334;9.506;2023-02-15T13:49:09;19.27;;;14.35;;
22318;SDS011;11327;52.334;9.506;2023-02-15T13:52:39;20.23;;;14.23;;
22318;SDS011;11327;52.334;9.506;2023-02-15T14:00:11;21.65;;;14.43;;
22318;SDS011;11327;52.334;9.506;2023-02-15T14:11:08;21.90;;;13.67;;
22318;SDS011;11327;52.334;9.506;2023-02-15T14:15:34;19.45;;;13.15;;
22318;SDS011;11327;52.334;9.506;2023-02-15T14:21:59;17.27;;;12.18;;
22318;SDS011;11327;52.334;9.506;2023-02-15T14:25:37;17.62;;;12.43;;
22318;SDS011;11327;52.334;9.506;2023-02-15T14:32:33;17.30;;;11.68;;
22318;SDS011;11327;52.334;9.506;2023-02-15T14:35:56;18.67;;;12.20;;
22318;SDS011;11327;52.334;9.506;2023-02-15T14:43:15;16.55;;;11.28;;
22318;SDS011;11327;52.334;9.506;2023-02-15T14:53:59;17.73;;;10.95;;
22318;SDS011;11327;52.334;9.506;2023-02-15T14:57:21;16.73;;;11.38;;
22318;SDS011;11327;52.334;9.506;2023-02-15T15:00:43;16.30;;;11.45;;
22318;SDS011;11327;52.334;9.506;2023-02-15T15:04:05;15.48;;;10.43;;
22318;SDS011;11327;52.334;9.506;2023-02-15T15:14:53;18.52;;;12.33;;
22318;SDS011;11327;52.334;9.506;2023-02-15T15:22:04;20.05;;;12.68;;
22318;SDS011;11327;52.334;9.506;2023-02-15T15:29:07;20.10;;;13.20;;
22318;SDS011;11327;52.334;9.506;2023-02-15T15:32:29;20.12;;;13.05;;
22318;SDS011;11327;52.334;9.506;2023-02-15T15:36:08;19.37;;;12.03;;
22318;SDS011;11327;52.334;9.506;2023-02-15T15:43:10;17.77;;;12.10;;
22318;SDS011;11327;52.334;9.506;2023-02-15T15:46:46;20.43;;;12.05;;
22318;SDS011;11327;52.334;9.506;2023-02-15T15:50:10;19.67;;;12.50;;
22318;SDS011;11327;52.334;9.506;2023-02-15T15:53:38;20.77;;;12.63;;
22318;SDS011;11327;52.334;9.506;2023-02-15T15:57:02;20.23;;;12.65;;
22318;SDS011;11327;52.334;9.506;2023-02-15T16:03:58;19.00;;;11.90;;
22318;SDS011;11327;52.334;9.506;2023-02-15T16:07:22;17.67;;;11.70;;
22318;SDS011;11327;52.334;9.506;2023-02-15T16:10:43;17.45;;;11.75;;
22318;SDS011;11327;52.334;9.506;2023-02-15T16:14:10;20.50;;;12.10;;
22318;SDS011;11327;52.334;9.506;2023-02-15T16:17:34;20.30;;;12.10;;
22318;SDS011;11327;52.334;9.506;2023-02-15T16:20:55;19.12;;;11.33;;
22318;SDS011;11327;52.334;9.506;2023-02-15T16:27:44;20.97;;;12.75;;
22318;SDS011;11327;52.334;9.506;2023-02-15T16:31:10;18.73;;;11.75;;
22318;SDS011;11327;52.334;9.506;2023-02-15T16:34:35;17.45;;;11.40;;
22318;SDS011;11327;52.334;9.506;2023-02-15T16:37:56;20.02;;;12.78;;
22318;SDS011;11327;52.334;9.506;2023-02-15T16:41:19;21.65;;;14.13;;
22318;SDS011;11327;52.334;9.506;2023-02-15T16:44:45;18.48;;;11.73;;
22318;SDS011;11327;52.334;9.506;2023-02-15T16:48:11;17.50;;;11.53;;
22318;SDS011;11327;52.334;9.506;2023-02-15T16:51:33;17.90;;;11.63;;
22318;SDS011;11327;52.334;9.506;2023-02-15T16:55:03;16.15;;;11.05;;
22318;SDS011;11327;52.334;9.506;2023-02-15T17:01:44;18.85;;;12.35;;
22318;SDS011;11327;52.334;9.506;2023-02-15T17:05:07;24.20;;;13.35;;
22318;SDS011;11327;52.334;9.506;2023-02-15T17:08:34;23.42;;;14.15;;
22318;SDS011;11327;52.334;9.506;2023-02-15T17:12:00;44.50;;;29.40;;
22318;SDS011;11327;52.334;9.506;2023-02-15T17:18:52;20.75;;;12.15;;
22318;SDS011;11327;52.334;9.506;2023-02-15T17:22:25;18.40;;;11.65;;
22318;SDS011;11327;52.334;9.506;2023-02-15T17:25:42;19.62;;;12.18;;
22318;SDS011;11327;52.334;9.506;2023-02-15T17:32:34;18.45;;;11.73;;
22318;SDS011;11327;52.334;9.506;2023-02-15T17:36:03;18.52;;;12.30;;
22318;SDS011;11327;52.334;9.506;2023-02-15T17:39:26;19.60;;;12.53;;
22318;SDS011;11327;52.334;9.506;2023-02-15T17:42:47;19.75;;;12.80;;
22318;SDS011;11327;52.334;9.506;2023-02-15T17:46:08;20.50;;;13.15;;
22318;SDS011;11327;52.334;9.506;2023-02-15T17:49:29;22.32;;;13.95;;
22318;SDS011;11327;52.334;9.506;2023-02-15T17:52:52;22.37;;;14.93;;
22318;SDS011;11327;52.334;9.506;2023-02-15T17:56:15;18.62;;;12.37;;
22318;SDS011;11327;52.334;9.506;2023-02-15T17:59:36;18.57;;;12.45;;
22318;SDS011;11327;52.334;9.506;2023-02-15T18:03:14;17.60;;;11.63;;
22318;SDS011;11327;52.334;9.506;2023-02-15T18:06:54;19.95;;;12.30;;
22318;SDS011;11327;52.334;9.506;2023-02-15T18:10:34;18.10;;;11.57;;
22318;SDS011;11327;52.334;9.506;2023-02-15T18:14:13;18.23;;;12.43;;
22318;SDS011;11327;52.334;9.506;2023-02-15T18:17:36;21.57;;;13.95;;
22318;SDS011;11327;52.334;9.506;2023-02-15T18:21:01;22.30;;;14.58;;
22318;SDS011;11327;52.334;9.506;2023-02-15T18:24:23;23.70;;;14.65;;
22318;SDS011;11327;52.334;9.506;2023-02-15T18:27:45;24.30;;;15.60;;
22318;SDS011;11327;52.334;9.506;2023-02-15T18:31:06;20.05;;;12.73;;
22318;SDS011;11327;52.334;9.506;2023-02-15T18:34:27;23.92;;;14.50;;
22318;SDS011;11327;52.334;9.506;2023-02-15T18:41:15;20.43;;;13.48;;
22318;SDS011;11327;52.334;9.506;2023-02-15T18:44:38;21.23;;;13.32;;
22318;SDS011;11327;52.334;9.506;2023-02-15T18:47:58;23.83;;;14.55;;
22318;SDS011;11327;52.334;9.506;2023-02-15T18:51:20;23.67;;;15.32;;
22318;SDS011;11327;52.334;9.506;2023-02-15T18:54:43;22.27;;;14.70;;
22318;SDS011;11327;52.334;9.506;2023-02-15T18:58:05;22.73;;;14.03;;
22318;SDS011;11327;52.334;9.506;2023-02-15T19:01:26;20.80;;;14.07;;
22318;SDS011;11327;52.334;9.506;2023-02-15T19:04:47;25.77;;;15.48;;
22318;SDS011;11327;52.334;9.506;2023-02-15T19:08:12;21.55;;;14.28;;
22318;SDS011;11327;52.334;9.506;2023-02-15T19:11:36;24.72;;;14.70;;
22318;SDS011;11327;52.334;9.506;2023-02-15T19:14:56;26.35;;;16.32;;
22318;SDS011;11327;52.334;9.506;2023-02-15T19:18:17;20.45;;;13.85;;
22318;SDS011;11327;52.334;9.506;2023-02-15T19:21:38;24.75;;;15.10;;
22318;SDS011;11327;52.334;9.506;2023-02-15T19:25:00;25.95;;;15.75;;
22318;SDS011;11327;52.334;9.506;2023-02-15T19:28:26;25.27;;;14.73;;
22318;SDS011;11327;52.334;9.506;2023-02-15T19:31:48;26.65;;;15.80;;
22318;SDS011;11327;52.334;9.506;2023-02-15T19:35:12;24.07;;;15.08;;
22318;SDS011;11327;52.334;9.506;2023-02-15T19:38:33;23.20;;;14.78;;
22318;SDS011;11327;52.334;9.506;2023-02-15T19:41:56;23.35;;;15.05;;
22318;SDS011;11327;52.334;9.506;2023-02-15T19:45:18;25.02;;;16.45;;
22318;SDS011;11327;52.334;9.506;2023-02-15T19:48:40;26.87;;;16.35;;
22318;SDS011;11327;52.334;9.506;2023-02-15T19:52:01;29.72;;;17.42;;
22318;SDS011;11327;52.334;9.506;2023-02-15T19:55:23;26.33;;;16.97;;
22318;SDS011;11327;52.334;9.506;2023-02-15T19:58:45;22.90;;;15.03;;
22318;SDS011;11327;52.334;9.506;2023-02-15T20:02:09;23.57;;;14.28;;
22318;SDS011;11327;52.334;9.506;2023-02-15T20:05:33;23.62;;;15.13;;
22318;SDS011;11327;52.334;9.506;2023-02-15T20:08:57;25.68;;;17.07;;
22318;SDS011;11327;52.334;9.506;2023-02-15T20:12:20;22.62;;;14.70;;
22318;SDS011;11327;52.334;9.506;2023-02-15T20:15:43;39.23;;;23.22;;
22318;SDS011;11327;52.334;9.506;2023-02-15T20:19:04;33.38;;;19.80;;
22318;SDS011;11327;52.334;9.506;2023-02-15T20:22:25;27.90;;;17.42;;
22318;SDS011;11327;52.334;9.506;2023-02-15T20:25:48;24.87;;;16.48;;
22318;SDS011;11327;52.334;9.506;2023-02-15T20:29:13;23.22;;;14.98;;
22318;SDS011;11327;52.334;9.506;2023-02-15T20:32:35;25.55;;;15.23;;
22318;SDS011;11327;52.334;9.506;2023-02-15T20:35:55;23.40;;;15.10;;
22318;SDS011;11327;52.334;9.506;2023-02-15T20:39:18;22.42;;;13.85;;
22318;SDS011;11327;52.334;9.506;2023-02-15T20:42:39;23.35;;;14.55;;
22318;SDS011;11327;52.334;9.506;2023-02-15T20:46:00;28.17;;;17.95;;
22318;SDS011;11327;52.334;9.506;2023-02-15T20:49:22;23.60;;;15.28;;
22318;SDS011;11327;52.334;9.506;2023-02-15T20:52:44;27.05;;;18.45;;
22318;SDS011;11327;52.334;9.506;2023-02-15T20:56:10;25.27;;;16.00;;
22318;SDS011;11327;52.334;9.506;2023-02-15T20:59:31;25.02;;;15.95;;
22318;SDS011;11327;52.334;9.506;2023-02-15T21:02:58;27.60;;;17.05;;
22318;SDS011;11327;52.334;9.506;2023-02-15T21:06:17;23.35;;;15.38;;
22318;SDS011;11327;52.334;9.506;2023-02-15T21:09:38;24.05;;;15.15;;
22318;SDS011;11327;52.334;9.506;2023-02-15T21:12:58;25.45;;;14.93;;
22318;SDS011;11327;52.334;9.506;2023-02-15T21:16:20;26.00;;;16.07;;
22318;SDS011;11327;52.334;9.506;2023-02-15T21:19:41;23.85;;;14.58;;
22318;SDS011;11327;52.334;9.506;2023-02-15T21:23:03;24.30;;;14.73;;
22318;SDS011;11327;52.334;9.506;2023-02-15T21:26:25;23.73;;;15.03;;
22318;SDS011;11327;52.334;9.506;2023-02-15T21:29:46;26.17;;;15.38;;
22318;SDS011;11327;52.334;9.506;2023-02-15T21:33:06;27.62;;;16.40;;
22318;SDS011;11327;52.334;9.506;2023-02-15T21:36:27;27.65;;;15.50;;
22318;SDS011;11327;52.334;9.506;2023-02-15T21:39:48;25.00;;;14.98;;
22318;SDS011;11327;52.334;9.506;2023-02-15T21:43:21;25.62;;;14.30;;
22318;SDS011;11327;52.334;9.506;2023-02-15T21:47:03;24.82;;;15.05;;
22318;SDS011;11327;52.334;9.506;2023-02-15T21:50:43;26.73;;;15.35;;
22318;SDS011;11327;52.334;9.506;2023-02-15T21:54:22;25.52;;;14.75;;
22318;SDS011;11327;52.334;9.506;2023-02-15T21:57:43;27.07;;;15.15;;
22318;SDS011;11327;52.334;9.506;2023-02-15T22:01:05;26.35;;;15.90;;
22318;SDS011;11327;52.334;9.506;2023-02-15T22:04:27;29.70;;;16.67;;
22318;SDS011;11327;52.334;9.506;2023-02-15T22:07:49;26.77;;;15.60;;
22318;SDS011;11327;52.334;9.506;2023-02-15T22:11:11;27.10;;;15.48;;
22318;SDS011;11327;52.334;9.506;2023-02-15T22:14:35;24.65;;;14.18;;
22318;SDS011;11327;52.334;9.506;2023-02-15T22:18:00;26.57;;;15.03;;
22318;SDS011;11327;52.334;9.506;2023-02-15T22:21:22;25.97;;;15.00;;
22318;SDS011;11327;52.334;9.506;2023-02-15T22:24:45;25.52;;;14.78;;
22318;SDS011;11327;52.334;9.506;2023-02-15T22:28:08;25.45;;;14.90;;
22318;SDS011;11327;52.334;9.506;2023-02-15T22:31:32;24.02;;;14.20;;
22318;SDS011;11327;52.334;9.506;2023-02-15T22:34:53;23.50;;;14.07;;
22318;SDS011;11327;52.334;9.506;2023-02-15T22:38:14;25.05;;;14.65;;
22318;SDS011;11327;52.334;9.506;2023-02-15T22:41:34;22.40;;;14.58;;
22318;SDS011;11327;52.334;9.506;2023-02-15T22:44:55;23.85;;;14.00;;
22318;SDS011;11327;52.334;9.506;2023-02-15T22:48:17;27.95;;;17.07;;
22318;SDS011;11327;52.334;9.506;2023-02-15T22:51:41;24.60;;;15.88;;
22318;SDS011;11327;52.334;9.506;2023-02-15T22:55:05;35.58;;;22.00;;
22318;SDS011;11327;52.334;9.506;2023-02-15T22:58:26;28.62;;;18.42;;
22318;SDS011;11327;52.334;9.506;2023-02-15T23:01:48;26.30;;;15.58;;
22318;SDS011;11327;52.334;9.506;2023-02-15T23:05:20;26.05;;;15.72;;